sensor_id;sensor_type;location;lat;lon;timestamp;P1;durP1;ratioP1;P2;durP2;ratioP2
38264;SDS011;24062;47.480;8.768;2022-10-31T00:01:22;8.10;;;4.50;;
38264;SDS011;24062;47.480;8.768;2022-10-31T00:03:52;14.73;;;5.20;;
38264;SDS011;24062;47.480;8.768;2022-10-31T00:06:19;15.67;;;4.07;;
38264;SDS011;24062;47.480;8.768;2022-10-31T00:08:46;12.63;;;4.70;;
38264;SDS011;24062;47.480;8.768;2022-10-31T00:11:17;7.23;;;4.80;;
38264;SDS011;24062;47.480;8.768;2022-10-31T00:13:44;7.07;;;4.67;;
38264;SDS011;24062;47.480;8.768;2022-10-31T00:16:14;15.53;;;5.37;;
38264;SDS011;24062;47.480;8.768;2022-10-31T00:18:41;12.90;;;4.70;;
38264;SDS011;24062;47.480;8.768;2022-10-31T00:21:10;8.60;;;4.90;;
38264;SDS011;24062;47.480;8.768;2022-10-31T00:23:36;18.20;;;4.57;;
38264;SDS011;24062;47.480;8.768;2022-10-31T00:26:03;19.93;;;5.10;;
38264;SDS011;24062;47.480;8.768;2022-10-31T00:28:32;14.70;;;5.30;;
38264;SDS011;24062;47.480;8.768;2022-10-31T00:30:59;9.07;;;5.37;;
38264;SDS011;24062;47.480;8.768;2022-10-31T00:33:26;15.60;;;5.33;;
38264;SDS011;24062;47.480;8.768;2022-10-31T00:35:54;9.60;;;4.60;;
38264;SDS011;24062;47.480;8.768;2022-10-31T00:38:23;6.83;;;4.50;;
38264;SDS011;24062;47.480;8.768;2022-10-31T00:40:50;6.67;;;4.63;;
38264;SDS011;24062;47.480;8.768;2022-10-31T00:43:17;9.00;;;4.80;;
38264;SDS011;24062;47.480;8.768;2022-10-31T00:45:44;8.93;;;4.80;;
38264;SDS011;24062;47.480;8.768;2022-10-31T00:48:11;7.87;;;4.67;;
38264;SDS011;24062;47.480;8.768;2022-10-31T00:50:38;6.67;;;4.30;;
38264;SDS011;24062;47.480;8.768;2022-10-31T00:53:06;7.27;;;4.20;;
38264;SDS011;24062;47.480;8.768;2022-10-31T00:55:34;21.13;;;5.80;;
38264;SDS011;24062;47.480;8.768;2022-10-31T00:58:01;6.90;;;4.10;;
38264;SDS011;24062;47.480;8.768;2022-10-31T01:00:28;10.83;;;4.47;;
38264;SDS011;24062;47.480;8.768;2022-10-31T01:02:54;6.83;;;4.20;;
38264;SDS011;24062;47.480;8.768;2022-10-31T01:05:22;7.87;;;4.30;;
38264;SDS011;24062;47.480;8.768;2022-10-31T01:07:48;10.00;;;5.20;;
38264;SDS011;24062;47.480;8.768;2022-10-31T01:10:15;13.43;;;5.40;;
38264;SDS011;24062;47.480;8.768;2022-10-31T01:12:45;8.87;;;5.27;;
38264;SDS011;24062;47.480;8.768;2022-10-31T01:15:15;12.67;;;5.63;;
38264;SDS011;24062;47.480;8.768;2022-10-31T01:17:44;9.17;;;4.57;;
38264;SDS011;24062;47.480;8.768;2022-10-31T01:20:11;6.67;;;4.43;;
38264;SDS011;24062;47.480;8.768;2022-10-31T01:22:39;14.73;;;5.60;;
38264;SDS011;24062;47.480;8.768;2022-10-31T01:25:07;6.13;;;4.30;;
38264;SDS011;24062;47.480;8.768;2022-10-31T01:27:35;7.93;;;4.67;;
38264;SDS011;24062;47.480;8.768;2022-10-31T01:30:04;13.40;;;5.10;;
38264;SDS011;24062;47.480;8.768;2022-10-31T01:32:32;14.63;;;4.27;;
38264;SDS011;24062;47.480;8.768;2022-10-31T01:34:58;11.07;;;4.77;;
38264;SDS011;24062;47.480;8.768;2022-10-31T01:37:25;9.80;;;4.37;;
38264;SDS011;24062;47.480;8.768;2022-10-31T01:39:52;9.87;;;4.07;;
38264;SDS011;24062;47.480;8.768;2022-10-31T01:42:20;14.67;;;5.57;;
38264;SDS011;24062;47.480;8.768;2022-10-31T01:44:53;9.80;;;4.97;;
38264;SDS011;24062;47.480;8.768;2022-10-31T01:47:29;9.47;;;4.73;;
38264;SDS011;24062;47.480;8.768;2022-10-31T01:50:04;12.93;;;4.27;;
38264;SDS011;24062;47.480;8.768;2022-10-31T01:52:37;6.30;;;4.33;;
38264;SDS011;24062;47.480;8.768;2022-10-31T01:55:07;10.23;;;4.70;;
38264;SDS011;24062;47.480;8.768;2022-10-31T01:57:40;10.80;;;4.27;;
38264;SDS011;24062;47.480;8.768;2022-10-31T02:00:11;6.57;;;3.50;;
38264;SDS011;24062;47.480;8.768;2022-10-31T02:02:40;9.83;;;4.47;;
38264;SDS011;24062;47.480;8.768;2022-10-31T02:05:09;12.17;;;3.83;;
38264;SDS011;24062;47.480;8.768;2022-10-31T02:07:39;5.20;;;4.03;;
38264;SDS011;24062;47.480;8.768;2022-10-31T02:10:11;9.90;;;4.93;;
38264;SDS011;24062;47.480;8.768;2022-10-31T02:12:38;8.87;;;3.40;;
38264;SDS011;24062;47.480;8.768;2022-10-31T02:15:07;8.53;;;3.40;;
38264;SDS011;24062;47.480;8.768;2022-10-31T02:17:35;8.57;;;4.13;;
38264;SDS011;24062;47.480;8.768;2022-10-31T02:20:07;6.17;;;3.87;;
38264;SDS011;24062;47.480;8.768;2022-10-31T02:22:43;9.63;;;3.90;;
38264;SDS011;24062;47.480;8.768;2022-10-31T02:25:48;6.20;;;4.37;;
38264;SDS011;24062;47.480;8.768;2022-10-31T02:28:32;7.20;;;4.53;;
38264;SDS011;24062;47.480;8.768;2022-10-31T02:31:16;7.80;;;4.50;;
38264;SDS011;24062;47.480;8.768;2022-10-31T02:33:53;4.67;;;3.80;;
38264;SDS011;24062;47.480;8.768;2022-10-31T02:36:25;6.37;;;3.83;;
38264;SDS011;24062;47.480;8.768;2022-10-31T02:38:59;5.80;;;3.60;;
38264;SDS011;24062;47.480;8.768;2022-10-31T02:41:35;7.80;;;3.90;;
38264;SDS011;24062;47.480;8.768;2022-10-31T02:44:12;16.23;;;4.10;;
38264;SDS011;24062;47.480;8.768;2022-10-31T02:46:47;9.20;;;4.20;;
38264;SDS011;24062;47.480;8.768;2022-10-31T02:49:18;9.93;;;3.80;;
38264;SDS011;24062;47.480;8.768;2022-10-31T02:51:49;10.37;;;3.90;;
38264;SDS011;24062;47.480;8.768;2022-10-31T02:54:17;10.13;;;4.60;;
38264;SDS011;24062;47.480;8.768;2022-10-31T02:56:46;14.83;;;4.37;;
38264;SDS011;24062;47.480;8.768;2022-10-31T02:59:14;10.43;;;4.57;;
38264;SDS011;24062;47.480;8.768;2022-10-31T03:01:50;8.93;;;3.67;;
38264;SDS011;24062;47.480;8.768;2022-10-31T03:04:30;6.80;;;3.53;;
38264;SDS011;24062;47.480;8.768;2022-10-31T03:07:09;6.30;;;3.87;;
38264;SDS011;24062;47.480;8.768;2022-10-31T03:09:44;9.83;;;3.93;;
38264;SDS011;24062;47.480;8.768;2022-10-31T03:12:20;6.93;;;3.50;;
38264;SDS011;24062;47.480;8.768;2022-10-31T03:14:56;5.30;;;3.37;;
38264;SDS011;24062;47.480;8.768;2022-10-31T03:17:33;5.00;;;3.80;;
38264;SDS011;24062;47.480;8.768;2022-10-31T03:20:04;9.83;;;3.60;;
38264;SDS011;24062;47.480;8.768;2022-10-31T03:22:35;7.23;;;4.17;;
38264;SDS011;24062;47.480;8.768;2022-10-31T03:25:06;12.20;;;3.87;;
38264;SDS011;24062;47.480;8.768;2022-10-31T03:27:35;10.83;;;3.63;;
38264;SDS011;24062;47.480;8.768;2022-10-31T03:30:05;6.10;;;3.63;;
38264;SDS011;24062;47.480;8.768;2022-10-31T03:32:36;8.63;;;3.43;;
38264;SDS011;24062;47.480;8.768;2022-10-31T03:35:07;7.73;;;4.00;;
38264;SDS011;24062;47.480;8.768;2022-10-31T03:37:36;9.53;;;3.33;;
38264;SDS011;24062;47.480;8.768;2022-10-31T03:40:05;4.93;;;3.67;;
38264;SDS011;24062;47.480;8.768;2022-10-31T03:42:36;8.47;;;3.80;;
38264;SDS011;24062;47.480;8.768;2022-10-31T03:45:07;11.20;;;4.50;;
38264;SDS011;24062;47.480;8.768;2022-10-31T03:47:39;13.57;;;3.53;;
38264;SDS011;24062;47.480;8.768;2022-10-31T03:50:08;9.80;;;3.93;;
38264;SDS011;24062;47.480;8.768;2022-10-31T03:52:37;7.80;;;3.50;;
38264;SDS011;24062;47.480;8.768;2022-10-31T03:55:13;11.87;;;3.73;;
38264;SDS011;24062;47.480;8.768;2022-10-31T03:57:44;7.73;;;4.00;;
38264;SDS011;24062;47.480;8.768;2022-10-31T04:00:17;6.30;;;4.00;;
38264;SDS011;24062;47.480;8.768;2022-10-31T04:02:46;6.83;;;3.80;;
38264;SDS011;24062;47.480;8.768;2022-10-31T04:05:16;9.53;;;4.00;;
38264;SDS011;24062;47.480;8.768;2022-10-31T04:07:45;7.20;;;3.17;;
38264;SDS011;24062;47.480;8.768;2022-10-31T04:10:15;6.47;;;3.23;;
38264;SDS011;24062;47.480;8.768;2022-10-31T04:12:43;6.30;;;4.23;;
38264;SDS011;24062;47.480;8.768;2022-10-31T04:15:15;13.90;;;3.60;;
38264;SDS011;24062;47.480;8.768;2022-10-31T04:17:42;10.23;;;4.07;;
38264;SDS011;24062;47.480;8.768;2022-10-31T04:20:15;10.57;;;4.20;;
38264;SDS011;24062;47.480;8.768;2022-10-31T04:22:42;4.90;;;4.03;;
38264;SDS011;24062;47.480;8.768;2022-10-31T04:25:09;6.10;;;4.27;;
38264;SDS011;24062;47.480;8.768;2022-10-31T04:27:36;7.93;;;3.73;;
38264;SDS011;24062;47.480;8.768;2022-10-31T04:30:03;7.30;;;3.10;;
38264;SDS011;24062;47.480;8.768;2022-10-31T04:32:30;6.30;;;3.17;;
38264;SDS011;24062;47.480;8.768;2022-10-31T04:34:58;10.70;;;3.43;;
38264;SDS011;24062;47.480;8.768;2022-10-31T04:37:25;6.80;;;3.70;;
38264;SDS011;24062;47.480;8.768;2022-10-31T04:39:52;5.00;;;3.77;;
38264;SDS011;24062;47.480;8.768;2022-10-31T04:42:19;6.73;;;4.00;;
38264;SDS011;24062;47.480;8.768;2022-10-31T04:44:46;7.33;;;4.30;;
38264;SDS011;24062;47.480;8.768;2022-10-31T04:47:13;6.43;;;3.57;;
38264;SDS011;24062;47.480;8.768;2022-10-31T04:49:39;7.03;;;3.63;;
38264;SDS011;24062;47.480;8.768;2022-10-31T04:52:08;10.90;;;3.73;;
38264;SDS011;24062;47.480;8.768;2022-10-31T04:54:34;7.20;;;3.30;;
38264;SDS011;24062;47.480;8.768;2022-10-31T04:57:01;11.97;;;3.70;;
38264;SDS011;24062;47.480;8.768;2022-10-31T04:59:28;15.70;;;4.20;;
38264;SDS011;24062;47.480;8.768;2022-10-31T05:01:55;10.07;;;3.80;;
38264;SDS011;24062;47.480;8.768;2022-10-31T05:04:22;11.80;;;3.97;;
38264;SDS011;24062;47.480;8.768;2022-10-31T05:06:49;4.57;;;3.23;;
38264;SDS011;24062;47.480;8.768;2022-10-31T05:09:17;5.80;;;3.63;;
38264;SDS011;24062;47.480;8.768;2022-10-31T05:11:44;3.63;;;3.20;;
38264;SDS011;24062;47.480;8.768;2022-10-31T05:14:11;9.73;;;3.90;;
38264;SDS011;24062;47.480;8.768;2022-10-31T05:16:38;13.50;;;4.37;;
38264;SDS011;24062;47.480;8.768;2022-10-31T05:19:04;9.17;;;3.53;;
38264;SDS011;24062;47.480;8.768;2022-10-31T05:21:31;5.37;;;3.80;;
38264;SDS011;24062;47.480;8.768;2022-10-31T05:23:58;14.80;;;4.20;;
38264;SDS011;24062;47.480;8.768;2022-10-31T05:26:26;8.97;;;4.20;;
38264;SDS011;24062;47.480;8.768;2022-10-31T05:28:53;6.37;;;3.60;;
38264;SDS011;24062;47.480;8.768;2022-10-31T05:31:20;11.07;;;4.30;;
38264;SDS011;24062;47.480;8.768;2022-10-31T05:33:47;12.47;;;4.97;;
38264;SDS011;24062;47.480;8.768;2022-10-31T05:36:14;8.73;;;3.90;;
38264;SDS011;24062;47.480;8.768;2022-10-31T05:38:41;11.30;;;3.70;;
38264;SDS011;24062;47.480;8.768;2022-10-31T05:41:07;4.67;;;3.13;;
38264;SDS011;24062;47.480;8.768;2022-10-31T05:43:36;7.20;;;3.53;;
38264;SDS011;24062;47.480;8.768;2022-10-31T05:46:03;6.03;;;3.90;;
38264;SDS011;24062;47.480;8.768;2022-10-31T05:48:30;4.47;;;4.00;;
38264;SDS011;24062;47.480;8.768;2022-10-31T05:50:57;6.93;;;4.20;;
38264;SDS011;24062;47.480;8.768;2022-10-31T05:53:24;5.23;;;2.93;;
38264;SDS011;24062;47.480;8.768;2022-10-31T05:55:51;8.60;;;3.70;;
38264;SDS011;24062;47.480;8.768;2022-10-31T05:58:18;8.10;;;3.40;;
38264;SDS011;24062;47.480;8.768;2022-10-31T06:00:46;5.73;;;3.90;;
38264;SDS011;24062;47.480;8.768;2022-10-31T06:03:13;5.40;;;4.40;;
38264;SDS011;24062;47.480;8.768;2022-10-31T06:05:39;8.70;;;4.10;;
38264;SDS011;24062;47.480;8.768;2022-10-31T06:08:06;9.20;;;4.00;;
38264;SDS011;24062;47.480;8.768;2022-10-31T06:10:33;6.13;;;3.33;;
38264;SDS011;24062;47.480;8.768;2022-10-31T06:13:00;5.83;;;3.80;;
38264;SDS011;24062;47.480;8.768;2022-10-31T06:15:27;6.60;;;4.53;;
38264;SDS011;24062;47.480;8.768;2022-10-31T06:17:59;6.63;;;3.40;;
38264;SDS011;24062;47.480;8.768;2022-10-31T06:20:27;7.33;;;4.47;;
38264;SDS011;24062;47.480;8.768;2022-10-31T06:22:54;7.50;;;3.73;;
38264;SDS011;24062;47.480;8.768;2022-10-31T06:25:21;6.87;;;4.13;;
38264;SDS011;24062;47.480;8.768;2022-10-31T06:27:48;4.70;;;3.73;;
38264;SDS011;24062;47.480;8.768;2022-10-31T06:30:15;10.57;;;4.50;;
38264;SDS011;24062;47.480;8.768;2022-10-31T06:32:42;8.23;;;4.10;;
38264;SDS011;24062;47.480;8.768;2022-10-31T06:35:10;6.67;;;4.50;;
38264;SDS011;24062;47.480;8.768;2022-10-31T06:37:37;7.83;;;4.50;;
38264;SDS011;24062;47.480;8.768;2022-10-31T06:40:04;8.07;;;4.30;;
38264;SDS011;24062;47.480;8.768;2022-10-31T06:42:32;6.77;;;3.63;;
38264;SDS011;24062;47.480;8.768;2022-10-31T06:44:59;13.53;;;5.87;;
38264;SDS011;24062;47.480;8.768;2022-10-31T06:47:26;13.43;;;4.17;;
38264;SDS011;24062;47.480;8.768;2022-10-31T06:49:52;6.33;;;4.50;;
38264;SDS011;24062;47.480;8.768;2022-10-31T06:52:21;8.30;;;4.47;;
38264;SDS011;24062;47.480;8.768;2022-10-31T06:54:48;7.47;;;4.83;;
38264;SDS011;24062;47.480;8.768;2022-10-31T06:57:15;17.07;;;5.37;;
38264;SDS011;24062;47.480;8.768;2022-10-31T06:59:42;16.83;;;9.70;;
38264;SDS011;24062;47.480;8.768;2022-10-31T07:02:09;4.87;;;4.33;;
38264;SDS011;24062;47.480;8.768;2022-10-31T07:04:36;7.70;;;5.20;;
38264;SDS011;24062;47.480;8.768;2022-10-31T07:07:04;6.93;;;4.83;;
38264;SDS011;24062;47.480;8.768;2022-10-31T07:09:32;12.13;;;5.23;;
38264;SDS011;24062;47.480;8.768;2022-10-31T07:11:59;9.20;;;4.70;;
38264;SDS011;24062;47.480;8.768;2022-10-31T07:14:26;7.73;;;4.73;;
38264;SDS011;24062;47.480;8.768;2022-10-31T07:16:53;7.70;;;4.50;;
38264;SDS011;24062;47.480;8.768;2022-10-31T07:19:20;10.70;;;4.87;;
38264;SDS011;24062;47.480;8.768;2022-10-31T07:21:47;10.43;;;5.03;;
38264;SDS011;24062;47.480;8.768;2022-10-31T07:24:13;7.37;;;4.47;;
38264;SDS011;24062;47.480;8.768;2022-10-31T07:26:42;13.20;;;4.90;;
38264;SDS011;24062;47.480;8.768;2022-10-31T07:29:10;8.17;;;4.40;;
38264;SDS011;24062;47.480;8.768;2022-10-31T07:31:37;15.60;;;4.97;;
38264;SDS011;24062;47.480;8.768;2022-10-31T07:34:04;12.53;;;4.50;;
38264;SDS011;24062;47.480;8.768;2022-10-31T07:36:31;14.07;;;3.97;;
38264;SDS011;24062;47.480;8.768;2022-10-31T07:38:58;9.60;;;4.70;;
38264;SDS011;24062;47.480;8.768;2022-10-31T07:41:27;9.67;;;4.60;;
38264;SDS011;24062;47.480;8.768;2022-10-31T07:43:55;10.13;;;4.70;;
38264;SDS011;24062;47.480;8.768;2022-10-31T07:46:22;9.53;;;4.33;;
38264;SDS011;24062;47.480;8.768;2022-10-31T07:48:49;9.73;;;4.50;;
38264;SDS011;24062;47.480;8.768;2022-10-31T07:51:16;15.30;;;5.27;;
38264;SDS011;24062;47.480;8.768;2022-10-31T07:53:43;10.03;;;5.30;;
38264;SDS011;24062;47.480;8.768;2022-10-31T07:56:09;8.80;;;4.50;;
38264;SDS011;24062;47.480;8.768;2022-10-31T07:58:36;11.87;;;5.40;;
38264;SDS011;24062;47.480;8.768;2022-10-31T08:01:05;8.37;;;5.57;;
38264;SDS011;24062;47.480;8.768;2022-10-31T08:03:32;10.87;;;5.03;;
38264;SDS011;24062;47.480;8.768;2022-10-31T08:05:59;9.60;;;5.80;;
38264;SDS011;24062;47.480;8.768;2022-10-31T08:08:25;9.27;;;5.53;;
38264;SDS011;24062;47.480;8.768;2022-10-31T08:10:54;7.60;;;5.03;;
38264;SDS011;24062;47.480;8.768;2022-10-31T08:13:21;5.67;;;4.90;;
38264;SDS011;24062;47.480;8.768;2022-10-31T08:15:47;8.17;;;5.10;;
38264;SDS011;24062;47.480;8.768;2022-10-31T08:18:18;6.07;;;4.27;;
38264;SDS011;24062;47.480;8.768;2022-10-31T08:20:47;7.40;;;5.43;;
38264;SDS011;24062;47.480;8.768;2022-10-31T08:23:13;10.43;;;4.90;;
38264;SDS011;24062;47.480;8.768;2022-10-31T08:25:41;12.17;;;5.90;;
38264;SDS011;24062;47.480;8.768;2022-10-31T08:28:08;6.07;;;5.20;;
38264;SDS011;24062;47.480;8.768;2022-10-31T08:30:37;7.60;;;5.50;;
38264;SDS011;24062;47.480;8.768;2022-10-31T08:33:05;12.90;;;5.37;;
38264;SDS011;24062;47.480;8.768;2022-10-31T08:35:36;10.13;;;5.80;;
38264;SDS011;24062;47.480;8.768;2022-10-31T08:38:03;11.00;;;5.30;;
38264;SDS011;24062;47.480;8.768;2022-10-31T08:40:31;7.57;;;4.80;;
38264;SDS011;24062;47.480;8.768;2022-10-31T08:42:59;9.90;;;5.20;;
38264;SDS011;24062;47.480;8.768;2022-10-31T08:45:26;9.10;;;5.57;;
38264;SDS011;24062;47.480;8.768;2022-10-31T08:47:56;10.70;;;5.30;;
38264;SDS011;24062;47.480;8.768;2022-10-31T08:50:24;10.20;;;5.10;;
38264;SDS011;24062;47.480;8.768;2022-10-31T08:52:53;9.37;;;5.20;;
38264;SDS011;24062;47.480;8.768;2022-10-31T08:55:20;7.70;;;6.20;;
38264;SDS011;24062;47.480;8.768;2022-10-31T08:57:47;7.10;;;5.90;;
38264;SDS011;24062;47.480;8.768;2022-10-31T09:00:14;11.63;;;5.30;;
38264;SDS011;24062;47.480;8.768;2022-10-31T09:02:41;8.30;;;4.93;;
38264;SDS011;24062;47.480;8.768;2022-10-31T09:05:07;6.10;;;5.00;;
38264;SDS011;24062;47.480;8.768;2022-10-31T09:07:34;8.10;;;5.93;;
38264;SDS011;24062;47.480;8.768;2022-10-31T09:10:03;9.20;;;5.03;;
38264;SDS011;24062;47.480;8.768;2022-10-31T09:12:30;8.93;;;5.20;;
38264;SDS011;24062;47.480;8.768;2022-10-31T09:14:57;10.77;;;6.00;;
38264;SDS011;24062;47.480;8.768;2022-10-31T09:17:25;11.27;;;4.57;;
38264;SDS011;24062;47.480;8.768;2022-10-31T09:19:54;8.93;;;5.80;;
38264;SDS011;24062;47.480;8.768;2022-10-31T09:22:21;6.40;;;5.00;;
38264;SDS011;24062;47.480;8.768;2022-10-31T09:24:47;7.97;;;5.10;;
38264;SDS011;24062;47.480;8.768;2022-10-31T09:27:16;9.03;;;4.40;;
38264;SDS011;24062;47.480;8.768;2022-10-31T09:29:42;10.17;;;5.20;;
38264;SDS011;24062;47.480;8.768;2022-10-31T09:32:09;9.13;;;5.13;;
38264;SDS011;24062;47.480;8.768;2022-10-31T09:34:36;7.40;;;4.23;;
38264;SDS011;24062;47.480;8.768;2022-10-31T09:37:03;11.80;;;4.73;;
38264;SDS011;24062;47.480;8.768;2022-10-31T09:39:30;5.70;;;4.10;;
38264;SDS011;24062;47.480;8.768;2022-10-31T09:44:57;7.90;;;4.07;;
38264;SDS011;24062;47.480;8.768;2022-10-31T09:47:31;7.67;;;5.00;;
38264;SDS011;24062;47.480;8.768;2022-10-31T09:50:11;6.57;;;4.43;;
38264;SDS011;24062;47.480;8.768;2022-10-31T09:52:43;10.07;;;3.90;;
38264;SDS011;24062;47.480;8.768;2022-10-31T09:55:16;6.13;;;4.53;;
38264;SDS011;24062;47.480;8.768;2022-10-31T09:57:46;9.73;;;4.50;;
38264;SDS011;24062;47.480;8.768;2022-10-31T10:00:15;7.87;;;4.77;;
38264;SDS011;24062;47.480;8.768;2022-10-31T10:02:44;6.50;;;4.00;;
38264;SDS011;24062;47.480;8.768;2022-10-31T10:05:17;4.73;;;3.80;;
38264;SDS011;24062;47.480;8.768;2022-10-31T10:07:49;6.20;;;3.97;;
38264;SDS011;24062;47.480;8.768;2022-10-31T10:10:29;9.37;;;4.50;;
38264;SDS011;24062;47.480;8.768;2022-10-31T10:13:09;10.73;;;4.93;;
38264;SDS011;24062;47.480;8.768;2022-10-31T10:15:48;8.03;;;3.87;;
38264;SDS011;24062;47.480;8.768;2022-10-31T10:18:27;6.80;;;4.60;;
38264;SDS011;24062;47.480;8.768;2022-10-31T10:21:08;6.10;;;4.13;;
38264;SDS011;24062;47.480;8.768;2022-10-31T10:23:50;8.87;;;4.27;;
38264;SDS011;24062;47.480;8.768;2022-10-31T10:26:27;10.57;;;4.43;;
38264;SDS011;24062;47.480;8.768;2022-10-31T10:29:03;10.03;;;4.00;;
38264;SDS011;24062;47.480;8.768;2022-10-31T10:31:41;11.30;;;3.70;;
38264;SDS011;24062;47.480;8.768;2022-10-31T10:34:12;6.43;;;4.60;;
38264;SDS011;24062;47.480;8.768;2022-10-31T10:36:44;9.07;;;4.17;;
38264;SDS011;24062;47.480;8.768;2022-10-31T10:39:16;8.20;;;4.57;;
38264;SDS011;24062;47.480;8.768;2022-10-31T10:41:47;7.37;;;4.37;;
38264;SDS011;24062;47.480;8.768;2022-10-31T10:44:30;4.53;;;3.50;;
38264;SDS011;24062;47.480;8.768;2022-10-31T10:47:14;9.30;;;4.33;;
38264;SDS011;24062;47.480;8.768;2022-10-31T10:49:58;7.33;;;4.50;;
38264;SDS011;24062;47.480;8.768;2022-10-31T10:52:30;10.33;;;4.20;;
38264;SDS011;24062;47.480;8.768;2022-10-31T10:55:05;8.33;;;4.30;;
38264;SDS011;24062;47.480;8.768;2022-10-31T10:57:46;11.33;;;4.43;;
38264;SDS011;24062;47.480;8.768;2022-10-31T11:00:22;6.87;;;4.77;;
38264;SDS011;24062;47.480;8.768;2022-10-31T11:02:50;9.00;;;4.57;;
38264;SDS011;24062;47.480;8.768;2022-10-31T11:05:21;8.23;;;4.20;;
38264;SDS011;24062;47.480;8.768;2022-10-31T11:07:51;9.63;;;5.07;;
38264;SDS011;24062;47.480;8.768;2022-10-31T11:10:18;9.70;;;4.70;;
38264;SDS011;24062;47.480;8.768;2022-10-31T11:12:58;10.20;;;4.40;;
38264;SDS011;24062;47.480;8.768;2022-10-31T11:15:32;13.00;;;4.47;;
38264;SDS011;24062;47.480;8.768;2022-10-31T11:18:02;4.50;;;4.00;;
38264;SDS011;24062;47.480;8.768;2022-10-31T11:20:31;5.63;;;4.00;;
38264;SDS011;24062;47.480;8.768;2022-10-31T11:23:04;10.53;;;4.50;;
38264;SDS011;24062;47.480;8.768;2022-10-31T11:25:47;9.87;;;4.73;;
38264;SDS011;24062;47.480;8.768;2022-10-31T11:28:16;5.93;;;4.63;;
38264;SDS011;24062;47.480;8.768;2022-10-31T11:30:45;14.80;;;4.83;;
38264;SDS011;24062;47.480;8.768;2022-10-31T11:33:16;7.33;;;4.63;;
38264;SDS011;24062;47.480;8.768;2022-10-31T11:35:46;8.87;;;4.47;;
38264;SDS011;24062;47.480;8.768;2022-10-31T11:38:15;5.83;;;5.20;;
38264;SDS011;24062;47.480;8.768;2022-10-31T11:40:53;9.53;;;5.20;;
38264;SDS011;24062;47.480;8.768;2022-10-31T11:43:23;6.50;;;5.00;;
38264;SDS011;24062;47.480;8.768;2022-10-31T11:45:51;10.00;;;4.80;;
38264;SDS011;24062;47.480;8.768;2022-10-31T11:48:19;9.63;;;5.13;;
38264;SDS011;24062;47.480;8.768;2022-10-31T11:50:49;9.87;;;4.93;;
38264;SDS011;24062;47.480;8.768;2022-10-31T11:53:18;11.73;;;5.40;;
38264;SDS011;24062;47.480;8.768;2022-10-31T11:55:48;9.10;;;4.30;;
38264;SDS011;24062;47.480;8.768;2022-10-31T11:58:28;9.20;;;5.17;;
38264;SDS011;24062;47.480;8.768;2022-10-31T12:00:57;14.73;;;5.57;;
38264;SDS011;24062;47.480;8.768;2022-10-31T12:03:32;6.50;;;4.60;;
38264;SDS011;24062;47.480;8.768;2022-10-31T12:06:06;5.60;;;5.10;;
38264;SDS011;24062;47.480;8.768;2022-10-31T12:08:37;9.87;;;5.17;;
38264;SDS011;24062;47.480;8.768;2022-10-31T12:11:08;8.17;;;4.83;;
38264;SDS011;24062;47.480;8.768;2022-10-31T12:13:45;5.23;;;4.70;;
38264;SDS011;24062;47.480;8.768;2022-10-31T12:16:25;7.27;;;5.57;;
38264;SDS011;24062;47.480;8.768;2022-10-31T12:18:57;8.60;;;4.83;;
38264;SDS011;24062;47.480;8.768;2022-10-31T12:24:20;7.00;;;4.80;;
38264;SDS011;24062;47.480;8.768;2022-10-31T12:26:59;8.77;;;5.27;;
38264;SDS011;24062;47.480;8.768;2022-10-31T12:29:39;10.00;;;5.57;;
38264;SDS011;24062;47.480;8.768;2022-10-31T12:32:23;7.87;;;5.57;;
38264;SDS011;24062;47.480;8.768;2022-10-31T12:35:20;9.30;;;6.00;;
38264;SDS011;24062;47.480;8.768;2022-10-31T12:38:02;10.70;;;5.47;;
38264;SDS011;24062;47.480;8.768;2022-10-31T12:41:00;8.57;;;5.83;;
38264;SDS011;24062;47.480;8.768;2022-10-31T12:43:38;12.93;;;6.00;;
38264;SDS011;24062;47.480;8.768;2022-10-31T12:46:13;9.00;;;5.40;;
38264;SDS011;24062;47.480;8.768;2022-10-31T12:48:55;15.17;;;5.73;;
38264;SDS011;24062;47.480;8.768;2022-10-31T12:51:40;11.20;;;6.20;;
38264;SDS011;24062;47.480;8.768;2022-10-31T12:54:20;12.23;;;5.80;;
38264;SDS011;24062;47.480;8.768;2022-10-31T12:57:00;10.00;;;5.67;;
38264;SDS011;24062;47.480;8.768;2022-10-31T12:59:35;8.77;;;6.10;;
38264;SDS011;24062;47.480;8.768;2022-10-31T13:02:06;6.90;;;5.87;;
38264;SDS011;24062;47.480;8.768;2022-10-31T13:04:44;10.23;;;6.43;;
38264;SDS011;24062;47.480;8.768;2022-10-31T13:07:17;9.35;;;6.68;;
38264;SDS011;24062;47.480;8.768;2022-10-31T13:09:49;9.63;;;6.85;;
38264;SDS011;24062;47.480;8.768;2022-10-31T13:12:23;11.70;;;6.50;;
38264;SDS011;24062;47.480;8.768;2022-10-31T13:14:53;7.22;;;6.53;;
38264;SDS011;24062;47.480;8.768;2022-10-31T13:17:25;15.18;;;6.68;;
38264;SDS011;24062;47.480;8.768;2022-10-31T13:19:58;11.13;;;6.68;;
38264;SDS011;24062;47.480;8.768;2022-10-31T13:22:39;14.73;;;7.13;;
38264;SDS011;24062;47.480;8.768;2022-10-31T13:25:11;11.05;;;7.45;;
38264;SDS011;24062;47.480;8.768;2022-10-31T13:27:44;17.48;;;7.13;;
38264;SDS011;24062;47.480;8.768;2022-10-31T13:30:15;10.43;;;6.70;;
38264;SDS011;24062;47.480;8.768;2022-10-31T13:32:44;15.00;;;7.13;;
38264;SDS011;24062;47.480;8.768;2022-10-31T13:35:16;13.18;;;7.03;;
38264;SDS011;24062;47.480;8.768;2022-10-31T13:37:51;27.05;;;7.13;;
38264;SDS011;24062;47.480;8.768;2022-10-31T13:40:33;10.55;;;7.82;;
38264;SDS011;24062;47.480;8.768;2022-10-31T13:43:06;13.75;;;6.65;;
38264;SDS011;24062;47.480;8.768;2022-10-31T13:45:47;12.27;;;6.45;;
38264;SDS011;24062;47.480;8.768;2022-10-31T13:48:19;11.13;;;7.40;;
38264;SDS011;24062;47.480;8.768;2022-10-31T13:51:02;14.63;;;6.85;;
38264;SDS011;24062;47.480;8.768;2022-10-31T13:53:36;10.45;;;6.32;;
38264;SDS011;24062;47.480;8.768;2022-10-31T13:56:15;10.40;;;6.82;;
38264;SDS011;24062;47.480;8.768;2022-10-31T13:59:04;11.98;;;7.03;;
38264;SDS011;24062;47.480;8.768;2022-10-31T14:01:48;13.45;;;6.78;;
38264;SDS011;24062;47.480;8.768;2022-10-31T14:04:18;10.85;;;6.53;;
38264;SDS011;24062;47.480;8.768;2022-10-31T14:06:53;8.75;;;6.95;;
38264;SDS011;24062;47.480;8.768;2022-10-31T14:09:31;9.32;;;6.93;;
38264;SDS011;24062;47.480;8.768;2022-10-31T14:12:01;13.38;;;6.60;;
38264;SDS011;24062;47.480;8.768;2022-10-31T14:14:42;12.63;;;6.50;;
38264;SDS011;24062;47.480;8.768;2022-10-31T14:17:16;8.27;;;6.22;;
38264;SDS011;24062;47.480;8.768;2022-10-31T14:20:21;13.75;;;6.85;;
38264;SDS011;24062;47.480;8.768;2022-10-31T14:22:58;9.95;;;6.55;;
38264;SDS011;24062;47.480;8.768;2022-10-31T14:25:37;10.02;;;6.72;;
38264;SDS011;24062;47.480;8.768;2022-10-31T14:28:17;10.75;;;6.45;;
38264;SDS011;24062;47.480;8.768;2022-10-31T14:30:51;9.95;;;6.05;;
38264;SDS011;24062;47.480;8.768;2022-10-31T14:33:19;11.70;;;6.05;;
38264;SDS011;24062;47.480;8.768;2022-10-31T14:35:51;16.50;;;9.27;;
38264;SDS011;24062;47.480;8.768;2022-10-31T14:41:17;11.40;;;6.90;;
38264;SDS011;24062;47.480;8.768;2022-10-31T14:47:02;12.50;;;6.53;;
38264;SDS011;24062;47.480;8.768;2022-10-31T14:49:50;9.00;;;7.03;;
38264;SDS011;24062;47.480;8.768;2022-10-31T14:52:30;15.85;;;6.10;;
38264;SDS011;24062;47.480;8.768;2022-10-31T14:54:59;13.55;;;7.03;;
38264;SDS011;24062;47.480;8.768;2022-10-31T14:57:28;11.18;;;6.68;;
38264;SDS011;24062;47.480;8.768;2022-10-31T14:59:57;10.23;;;6.38;;
38264;SDS011;24062;47.480;8.768;2022-10-31T15:02:31;13.88;;;7.00;;
38264;SDS011;24062;47.480;8.768;2022-10-31T15:05:06;13.32;;;7.30;;
38264;SDS011;24062;47.480;8.768;2022-10-31T15:07:35;15.50;;;6.93;;
38264;SDS011;24062;47.480;8.768;2022-10-31T15:10:18;10.35;;;6.53;;
38264;SDS011;24062;47.480;8.768;2022-10-31T15:12:47;15.77;;;7.45;;
38264;SDS011;24062;47.480;8.768;2022-10-31T15:15:16;12.05;;;7.88;;
38264;SDS011;24062;47.480;8.768;2022-10-31T15:17:46;18.83;;;11.87;;